createdAt,value
2022-11-16T00:04:04.730Z,99729.41
2022-11-16T00:14:07.997Z,99736.53
2022-11-16T00:24:13.730Z,99733.63
2022-11-16T00:34:17.059Z,99721.22
2022-11-16T00:44:21.326Z,99702.13
2022-11-16T00:54:24.352Z,99721.22
2022-11-16T01:04:28.761Z,99714.88
2022-11-16T01:14:31.789Z,99697.13
2022-11-16T01:24:36.175Z,99693.47
2022-11-16T01:34:39.348Z,99682.38
2022-11-16T01:45:00.302Z,99686.13
2022-11-16T01:55:04.051Z,99685.97
2022-11-16T02:05:22.341Z,99690.38
2022-11-16T02:15:41.525Z,99682.75
2022-11-16T02:26:01.111Z,99665.44
2022-11-16T02:36:09.956Z,99671.84
2022-11-16T02:46:20.858Z,99671.66
2022-11-16T02:56:25.681Z,99690.56
2022-11-16T03:06:32.731Z,99683.22
2022-11-16T03:16:39.835Z,99687.22
2022-11-16T03:26:50.413Z,99694.31
2022-11-16T03:36:58.035Z,99706.53
2022-11-16T03:47:02.427Z,99719.09
2022-11-16T03:57:06.851Z,99732.91
2022-11-16T04:07:27.978Z,99731.44
2022-11-16T04:17:50.213Z,99750.56
2022-11-16T04:28:12.539Z,99748.00
2022-11-16T04:38:17.826Z,99740.16
2022-11-16T04:48:22.117Z,99748.19
2022-11-16T04:58:30.536Z,99772.41
2022-11-16T05:08:34.006Z,99775.16
2022-11-16T05:18:38.919Z,99774.56
2022-11-16T05:28:42.399Z,99768.94
2022-11-16T05:38:52.643Z,99761.94
2022-11-16T05:49:00.324Z,99767.16
2022-11-16T05:59:05.091Z,99789.16
2022-11-16T06:09:09.475Z,99791.09
2022-11-16T06:19:15.064Z,99791.38
2022-11-16T06:29:18.094Z,99804.16
2022-11-16T06:39:22.752Z,99828.13
2022-11-16T06:49:26.037Z,99822.81
2022-11-16T06:59:35.079Z,99834.38
2022-11-16T07:09:38.231Z,99841.31
2022-11-16T07:19:42.807Z,99849.47
2022-11-16T07:29:46.731Z,99856.72
2022-11-16T07:40:01.891Z,99870.63
2022-11-16T07:50:06.084Z,99883.75
2022-11-16T08:00:13.246Z,99888.88
2022-11-16T08:10:31.093Z,99895.38
2022-11-16T08:20:36.780Z,99904.47
2022-11-16T08:30:40.567Z,99901.03
2022-11-16T08:40:46.019Z,99894.59
2022-11-16T08:51:15.973Z,99907.16
2022-11-16T09:01:15.998Z,99913.41
2022-11-16T09:11:21.801Z,99914.69
2022-11-16T09:21:27.827Z,99920.59
2022-11-16T09:31:34.773Z,99921.13
2022-11-16T09:41:59.333Z,99927.38
2022-11-16T09:52:07.171Z,99927.25
2022-11-16T10:02:22.013Z,99928.22
2022-11-16T10:12:34.984Z,99929.94
2022-11-16T10:22:50.122Z,99929.69
2022-11-16T10:32:54.797Z,99914.88
2022-11-16T10:43:11.596Z,99917.91
2022-11-16T10:53:16.232Z,99920.66
2022-11-16T11:03:31.717Z,99919.56
2022-11-16T11:13:35.357Z,99912.81
2022-11-16T11:23:46.525Z,99918.38
2022-11-16T11:33:52.185Z,99905.41
2022-11-16T11:44:04.370Z,99892.53
2022-11-16T11:54:15.149Z,99882.50
2022-11-16T12:04:50.374Z,99865.63
2022-11-16T12:15:01.157Z,99851.97
2022-11-16T12:25:30.341Z,99845.97
2022-11-16T12:35:55.284Z,99834.03
2022-11-16T12:46:07.236Z,99820.38
2022-11-16T12:56:18.777Z,99802.13
2022-11-16T13:06:29.931Z,99793.28
2022-11-16T13:16:32.965Z,99791.91
2022-11-16T13:26:46.005Z,99779.63
2022-11-16T13:36:48.989Z,99779.88
2022-11-16T13:46:57.197Z,99780.25
2022-11-16T13:57:02.392Z,99776.09
2022-11-16T14:07:26.917Z,99782.41
2022-11-16T14:17:51.788Z,99773.03
2022-11-16T14:28:22.050Z,99747.94
2022-11-16T14:38:32.984Z,99742.25
2022-11-16T14:48:44.712Z,99731.13
2022-11-16T14:58:54.872Z,99722.81
2022-11-16T15:09:03.630Z,99704.09
2022-11-16T15:19:13.486Z,99701.19
2022-11-16T15:29:20.906Z,99696.31
2022-11-16T15:39:25.540Z,99685.13
2022-11-16T15:49:32.372Z,99654.09
2022-11-16T15:59:38.196Z,99643.94
2022-11-16T16:09:43.659Z,99618.50
2022-11-16T16:19:48.496Z,99612.97
2022-11-16T16:29:54.478Z,99608.34
2022-11-16T16:39:57.599Z,99609.75
2022-11-16T16:50:02.034Z,99598.44
2022-11-16T17:00:08.609Z,99578.81
2022-11-16T17:10:12.943Z,99577.41
2022-11-16T17:20:17.076Z,99556.38
2022-11-16T17:30:21.581Z,99564.25
2022-11-16T17:40:24.832Z,99544.75
2022-11-16T17:50:29.228Z,99535.41
2022-11-16T18:00:32.194Z,99528.78
2022-11-16T18:10:38.117Z,99542.38
2022-11-16T18:20:41.104Z,99531.38
2022-11-16T18:30:45.520Z,99535.31
2022-11-16T18:41:03.010Z,99521.75
2022-11-16T18:51:07.573Z,99509.53
2022-11-16T19:01:13.596Z,99495.44
2022-11-16T19:11:18.552Z,99481.19
2022-11-16T19:21:22.289Z,99458.22
2022-11-16T19:31:28.867Z,99429.16
2022-11-16T19:41:32.071Z,99402.41
2022-11-16T19:51:36.742Z,99367.22
2022-11-16T20:01:39.860Z,99341.47
2022-11-16T20:11:44.245Z,99330.28
2022-11-16T20:21:47.390Z,99310.75
2022-11-16T20:31:51.872Z,99285.81
2022-11-16T20:41:54.797Z,99265.63
2022-11-16T20:51:59.164Z,99272.19
2022-11-16T21:02:02.115Z,99251.94
2022-11-16T21:12:23.943Z,99238.50
2022-11-16T21:22:31.070Z,99213.91
2022-11-16T21:32:36.539Z,99184.44
2022-11-16T21:42:39.724Z,99162.13
2022-11-16T21:52:43.989Z,99130.03
2022-11-16T22:02:47.043Z,99114.00
2022-11-16T22:12:51.495Z,99068.47
2022-11-16T22:22:54.418Z,99035.75
2022-11-16T22:32:58.919Z,98991.94
2022-11-16T22:43:01.921Z,98956.59
2022-11-16T22:53:06.243Z,98927.78
2022-11-16T23:03:09.186Z,98883.53
2022-11-16T23:13:31.133Z,98856.38
2022-11-16T23:23:51.544Z,98818.91
2022-11-16T23:33:55.827Z,98778.09
2022-11-16T23:43:58.990Z,98736.53
2022-11-16T23:54:04.816Z,98687.31
